createdAt,value
2019-04-21T05:26:28.628Z,58.03
2019-04-21T05:31:53.590Z,58.54
2019-04-21T05:36:56.739Z,58.50
2019-04-21T05:41:50.645Z,59.19
2019-04-21T05:47:18.810Z,58.80
2019-04-21T05:52:05.438Z,58.59
2019-04-21T05:57:10.150Z,57.60
2019-04-21T06:02:27.303Z,58.21
2019-04-21T06:07:23.008Z,58.75
2019-04-21T06:12:25.276Z,57.79
2019-04-21T06:17:30.302Z,58.13
2019-04-21T06:22:23.878Z,54.75
2019-04-21T06:27:34.396Z,53.34
2019-04-21T06:32:50.339Z,52.72
2019-04-21T06:37:49.121Z,53.84
2019-04-21T06:42:40.203Z,53.94
2019-04-21T06:53:01.076Z,51.41
2019-04-21T06:57:51.652Z,51.15
2019-04-21T07:03:04.654Z,50.87
2019-04-21T07:08:07.632Z,48.13
2019-04-21T07:13:00.468Z,50.15
2019-04-21T07:18:08.983Z,48.10
2019-04-21T07:23:05.235Z,47.66
2019-04-21T07:28:05.668Z,45.42
2019-04-21T07:33:33.389Z,43.24
2019-04-21T07:38:11.664Z,42.95
2019-04-21T07:43:05.662Z,40.10
2019-04-21T07:48:21.628Z,39.14
2019-04-21T07:53:30.250Z,36.42
2019-04-21T07:58:29.823Z,35.58
2019-04-21T08:03:26.586Z,37.60
2019-04-21T08:08:28.425Z,36.40
2019-04-21T08:13:40.209Z,35.25
2019-04-21T08:18:39.361Z,32.96
2019-04-21T08:23:37.096Z,32.07
2019-04-21T08:28:48.308Z,33.37
2019-04-21T08:33:56.471Z,32.24
2019-04-21T08:38:48.455Z,31.29
2019-04-21T08:43:51.893Z,34.52
2019-04-21T08:48:57.460Z,32.16
2019-04-21T08:54:08.003Z,33.53
2019-04-21T08:59:24.083Z,30.44
2019-04-21T09:04:23.398Z,31.59
2019-04-21T09:09:28.856Z,32.44
2019-04-21T09:14:30.938Z,31.01
2019-04-21T09:19:47.055Z,31.88
2019-04-21T09:24:33.378Z,30.80
2019-04-21T09:29:33.688Z,28.23
2019-04-21T09:34:30.552Z,29.51
2019-04-21T09:39:29.279Z,29.26
2019-04-21T09:44:33.306Z,28.71
2019-04-21T09:49:33.936Z,28.80
2019-04-21T09:54:41.017Z,27.47
2019-04-21T09:59:40.739Z,27.27
2019-04-21T10:04:40.190Z,26.96
2019-04-21T10:09:41.213Z,26.00
2019-04-21T10:14:43.016Z,29.38
2019-04-21T10:19:44.195Z,26.33
2019-04-21T10:24:46.619Z,25.68
2019-04-21T10:29:52.273Z,27.03
2019-04-21T10:34:53.364Z,24.77
2019-04-21T10:39:55.829Z,24.49
2019-04-21T10:44:58.878Z,23.90
2019-04-21T10:50:00.492Z,23.72
2019-04-21T10:55:19.098Z,22.73
2019-04-21T11:00:09.105Z,23.16
2019-04-21T11:05:09.345Z,20.27
2019-04-21T11:10:10.316Z,22.79
2019-04-21T11:15:11.830Z,19.58
2019-04-21T11:20:13.140Z,20.99
2019-04-21T11:25:14.001Z,20.36
2019-04-21T11:30:15.762Z,21.21
2019-04-21T11:35:17.156Z,19.32
2019-04-21T11:40:21.588Z,19.18
2019-04-21T11:45:28.403Z,19.48
2019-04-21T11:50:30.804Z,22.20
2019-04-21T11:55:34.344Z,21.54
2019-04-21T12:00:35.868Z,19.78
2019-04-21T12:05:37.293Z,18.87
2019-04-21T12:10:42.570Z,21.00
2019-04-21T12:15:45.074Z,18.51
2019-04-21T12:20:47.035Z,18.98
2019-04-21T12:25:49.421Z,17.56
2019-04-21T12:30:53.655Z,18.02
2019-04-21T12:35:55.639Z,16.95
2019-04-21T12:40:56.991Z,19.35
2019-04-21T12:45:58.094Z,16.39
2019-04-21T12:50:59.818Z,17.53
2019-04-21T12:56:02.123Z,16.80
2019-04-21T13:01:03.455Z,17.62
2019-04-21T13:06:05.522Z,15.05
2019-04-21T13:11:09.345Z,17.68
2019-04-21T13:16:09.703Z,17.91
2019-04-21T13:21:11.928Z,15.38
2019-04-21T13:26:13.236Z,16.14
2019-04-21T13:31:14.237Z,14.51
2019-04-21T13:36:15.808Z,13.83
2019-04-21T13:41:32.681Z,15.79
2019-04-21T13:46:22.798Z,17.76
2019-04-21T13:51:25.075Z,18.65
2019-04-21T13:56:26.688Z,18.16
2019-04-21T14:01:27.921Z,15.71
2019-04-21T14:06:30.038Z,15.25
2019-04-21T14:11:31.379Z,17.78
2019-04-21T14:16:34.046Z,16.14
2019-04-21T14:21:35.335Z,18.41
2019-04-21T14:26:36.345Z,17.24
2019-04-21T14:31:38.244Z,17.26
2019-04-21T14:36:39.243Z,17.20
2019-04-21T14:41:40.603Z,17.54
2019-04-21T14:46:47.082Z,17.52
2019-04-21T14:51:50.078Z,18.04
2019-04-21T14:56:51.264Z,16.24
2019-04-21T15:01:53.627Z,18.50
2019-04-21T15:06:55.097Z,18.06
2019-04-21T15:11:56.204Z,18.56
2019-04-21T15:16:57.124Z,16.52
2019-04-21T15:21:58.666Z,15.81
2019-04-21T15:27:01.010Z,18.18
2019-04-21T15:32:02.467Z,17.48
2019-04-21T15:37:04.135Z,17.34
2019-04-21T15:42:06.248Z,17.99
2019-04-21T15:47:08.184Z,15.80
2019-04-21T15:52:09.754Z,15.97
2019-04-21T15:57:14.116Z,19.70
2019-04-21T16:02:34.826Z,19.77
2019-04-21T16:07:36.226Z,20.14
2019-04-21T16:12:37.914Z,20.21
2019-04-21T16:17:39.454Z,20.12
2019-04-21T16:22:42.750Z,19.17
2019-04-21T16:27:43.849Z,21.06
2019-04-21T16:32:46.010Z,20.54
2019-04-21T16:37:49.854Z,20.27
2019-04-21T16:42:52.061Z,19.34
2019-04-21T16:47:55.399Z,20.32
2019-04-21T16:53:04.296Z,21.50
2019-04-21T16:58:13.160Z,21.70
2019-04-21T17:03:10.433Z,22.57
2019-04-21T17:08:11.848Z,22.82
2019-04-21T17:13:13.975Z,23.31
2019-04-21T17:18:31.571Z,24.54
2019-04-21T17:23:17.873Z,24.61
2019-04-21T17:28:19.599Z,24.86
2019-04-21T17:33:24.610Z,25.38
2019-04-21T17:38:23.934Z,27.57
2019-04-21T17:43:25.761Z,26.98
2019-04-21T17:48:27.195Z,28.30
2019-04-21T17:53:43.145Z,29.01
2019-04-21T17:58:56.703Z,29.81
2019-04-21T18:04:03.809Z,30.14
2019-04-21T18:09:13.893Z,31.84
2019-04-21T18:13:49.448Z,31.38
2019-04-21T18:18:50.811Z,31.36
2019-04-21T18:24:04.880Z,31.70
2019-04-21T18:28:59.159Z,32.77
2019-04-21T18:34:10.069Z,33.98
2019-04-21T18:39:43.634Z,34.71
2019-04-21T18:45:28.166Z,34.42
2019-04-21T18:49:54.434Z,34.20
2019-04-21T18:55:10.841Z,33.95
2019-04-21T18:59:59.464Z,34.99
2019-04-21T19:05:29.797Z,34.69
2019-04-21T19:10:47.946Z,35.54
2019-04-21T19:16:22.540Z,35.52
2019-04-21T19:21:03.092Z,36.83
2019-04-21T19:26:18.973Z,37.60
2019-04-21T19:31:12.688Z,37.66
2019-04-21T19:35:55.053Z,38.49
2019-04-21T19:41:10.376Z,38.55
2019-04-21T19:46:13.930Z,39.72
2019-04-21T19:51:18.309Z,39.97
2019-04-21T19:56:05.918Z,40.79
2019-04-21T20:01:07.574Z,41.34
2019-04-21T20:06:22.186Z,41.92
2019-04-21T20:11:32.311Z,43.87
2019-04-21T20:16:37.442Z,42.65
2019-04-21T20:21:17.063Z,42.74
2019-04-21T20:26:23.145Z,44.67
2019-04-21T20:31:37.288Z,43.17
2019-04-21T20:36:44.004Z,43.49
2019-04-21T20:41:40.959Z,43.51
2019-04-21T20:46:45.091Z,43.46
2019-04-21T20:51:54.356Z,44.45
2019-04-21T20:56:49.779Z,44.30
2019-04-21T21:01:57.430Z,47.07
2019-04-21T21:07:01.913Z,44.74
2019-04-21T21:12:19.009Z,44.17
2019-04-21T21:17:04.763Z,45.46
2019-04-21T21:22:01.646Z,46.51
2019-04-21T21:27:06.699Z,48.55
2019-04-21T21:32:18.493Z,47.61
2019-04-21T21:37:30.988Z,46.81
2019-04-21T21:42:02.766Z,47.20
2019-04-21T21:52:46.510Z,47.68
2019-04-21T21:57:45.420Z,48.50
2019-04-21T22:02:45.515Z,48.86
2019-04-21T22:07:42.699Z,49.31
2019-04-21T22:18:16.736Z,50.26
2019-04-21T22:23:11.334Z,50.75
